createdAt,value
2022-11-07T00:00:17.817Z,0.00
2022-11-07T00:01:17.810Z,0.00
2022-11-07T00:02:17.873Z,0.00
2022-11-07T00:03:18.247Z,0.00
2022-11-07T00:04:17.776Z,0.00
2022-11-07T00:05:17.761Z,0.00
2022-11-07T00:06:17.767Z,0.00
2022-11-07T00:07:17.740Z,0.00
2022-11-07T00:08:17.726Z,0.00
2022-11-07T00:09:17.722Z,0.00
2022-11-07T00:10:17.701Z,0.00
2022-11-07T00:11:17.692Z,0.00
2022-11-07T00:12:17.682Z,0.00
2022-11-07T00:13:17.711Z,0.00
2022-11-07T00:14:17.662Z,0.00
2022-11-07T00:15:17.668Z,0.00
2022-11-07T00:16:17.629Z,0.00
2022-11-07T00:17:17.623Z,0.00
2022-11-07T00:18:17.619Z,0.00
2022-11-07T00:19:17.606Z,0.00
2022-11-07T00:20:17.592Z,0.00
2022-11-07T00:21:17.593Z,0.00
2022-11-07T00:22:17.591Z,0.00
2022-11-07T00:23:17.677Z,0.00
2022-11-07T00:24:17.541Z,0.00
2022-11-07T00:25:17.538Z,0.00
2022-11-07T00:26:17.535Z,0.00
2022-11-07T00:27:17.565Z,0.00
2022-11-07T00:28:17.498Z,0.00
2022-11-07T00:29:17.489Z,0.00
2022-11-07T00:30:17.476Z,0.00
2022-11-07T00:31:17.477Z,0.00
2022-11-07T00:32:17.463Z,0.00
2022-11-07T00:33:17.580Z,0.00
2022-11-07T00:34:17.429Z,0.00
2022-11-07T00:35:17.428Z,0.00
2022-11-07T00:36:17.431Z,0.00
2022-11-07T00:37:17.416Z,0.00
2022-11-07T00:38:17.414Z,0.00
2022-11-07T00:39:17.382Z,0.00
2022-11-07T00:40:17.368Z,0.00
2022-11-07T00:41:17.360Z,0.00
2022-11-07T00:42:17.368Z,0.00
2022-11-07T00:43:17.443Z,0.00
2022-11-07T00:44:17.333Z,0.00
2022-11-07T00:45:17.313Z,0.00
2022-11-07T00:46:17.313Z,0.00
2022-11-07T00:47:17.293Z,0.00
2022-11-07T00:48:17.296Z,0.00
2022-11-07T00:49:17.289Z,0.00
2022-11-07T00:50:17.253Z,0.00
2022-11-07T00:51:17.250Z,0.00
2022-11-07T00:52:17.234Z,0.00
2022-11-07T00:53:17.517Z,0.00
2022-11-07T00:54:17.249Z,0.00
2022-11-07T00:55:17.223Z,0.00
2022-11-07T00:56:17.192Z,0.00
2022-11-07T00:57:17.213Z,0.00
2022-11-07T00:58:17.177Z,0.00
2022-11-07T00:59:17.162Z,0.00
2022-11-07T01:00:17.166Z,0.00
2022-11-07T01:01:17.192Z,0.00
2022-11-07T01:02:17.292Z,0.00
2022-11-07T01:03:17.476Z,0.00
2022-11-07T01:04:17.117Z,0.00
2022-11-07T01:05:17.091Z,0.00
2022-11-07T01:06:17.089Z,0.00
2022-11-07T01:07:17.079Z,0.00
2022-11-07T01:08:17.057Z,0.00
2022-11-07T01:09:17.146Z,0.00
2022-11-07T01:10:17.146Z,0.00
2022-11-07T01:11:17.028Z,0.00
2022-11-07T01:12:17.029Z,0.00
2022-11-07T01:13:17.331Z,0.00
2022-11-07T01:14:17.002Z,0.00
2022-11-07T01:15:17.015Z,0.00
2022-11-07T01:16:16.970Z,0.00
2022-11-07T01:17:16.959Z,0.00
2022-11-07T01:18:16.958Z,0.00
2022-11-07T01:19:16.939Z,0.00
2022-11-07T01:20:16.922Z,0.00
2022-11-07T01:21:16.967Z,0.00
2022-11-07T01:22:16.900Z,0.00
2022-11-07T01:23:17.379Z,0.00
2022-11-07T01:24:16.902Z,0.00
2022-11-07T01:25:16.884Z,0.00
2022-11-07T01:26:16.876Z,0.00
2022-11-07T01:27:16.861Z,0.00
2022-11-07T01:28:16.837Z,0.00
2022-11-07T01:29:16.832Z,0.00
2022-11-07T01:30:16.837Z,0.00
2022-11-07T01:31:16.808Z,0.00
2022-11-07T01:32:16.786Z,0.00
2022-11-07T01:33:17.134Z,0.00
2022-11-07T01:34:16.770Z,0.00
2022-11-07T01:35:16.774Z,0.00
2022-11-07T01:36:16.770Z,0.00
2022-11-07T01:37:16.736Z,0.00
2022-11-07T01:38:16.730Z,0.00
2022-11-07T01:39:16.719Z,0.00
2022-11-07T01:40:16.719Z,0.00
2022-11-07T01:41:16.710Z,0.00
2022-11-07T01:42:16.700Z,0.00
2022-11-07T01:43:17.041Z,0.00
2022-11-07T01:44:16.655Z,0.00
2022-11-07T01:45:16.654Z,0.00
2022-11-07T01:46:16.646Z,0.00
2022-11-07T01:47:16.651Z,0.00
2022-11-07T01:48:16.611Z,0.00
2022-11-07T01:49:16.605Z,0.00
2022-11-07T01:50:16.592Z,0.00
2022-11-07T01:51:16.581Z,0.00
2022-11-07T01:52:16.583Z,0.00
2022-11-07T01:53:16.877Z,0.00
2022-11-07T01:54:16.548Z,0.00
2022-11-07T01:55:16.542Z,0.00
2022-11-07T01:56:16.540Z,0.00
2022-11-07T01:57:16.514Z,0.00
2022-11-07T01:58:16.551Z,0.00
2022-11-07T01:59:16.496Z,0.00
2022-11-07T02:00:16.478Z,0.00
2022-11-07T02:01:16.565Z,0.00
2022-11-07T02:02:16.579Z,0.00
2022-11-07T02:03:16.912Z,0.00
2022-11-07T02:04:16.434Z,0.00
2022-11-07T02:05:16.423Z,0.00
2022-11-07T02:06:16.412Z,0.00
2022-11-07T02:07:16.408Z,0.00
2022-11-07T02:08:16.400Z,0.00
2022-11-07T02:09:16.393Z,0.00
2022-11-07T02:10:16.375Z,0.00
2022-11-07T02:11:16.361Z,0.00
2022-11-07T02:12:16.346Z,0.00
2022-11-07T02:13:16.606Z,0.00
2022-11-07T02:14:16.357Z,0.00
2022-11-07T02:15:16.334Z,0.00
2022-11-07T02:16:16.302Z,0.00
2022-11-07T02:17:16.294Z,0.00
2022-11-07T02:18:16.281Z,0.00
2022-11-07T02:19:16.285Z,0.00
2022-11-07T02:20:16.259Z,0.00
2022-11-07T02:21:16.263Z,0.00
2022-11-07T02:22:16.238Z,0.00
2022-11-07T02:23:16.786Z,0.00
2022-11-07T02:24:16.242Z,0.00
2022-11-07T02:25:16.206Z,0.00
2022-11-07T02:26:16.195Z,0.00
2022-11-07T02:27:16.203Z,0.00
2022-11-07T02:28:16.168Z,0.00
2022-11-07T02:29:16.163Z,0.00
2022-11-07T02:30:16.183Z,0.00
2022-11-07T02:31:16.141Z,0.00
2022-11-07T02:32:16.132Z,0.00
2022-11-07T02:33:16.532Z,0.00
2022-11-07T02:34:16.114Z,0.00
2022-11-07T02:35:16.103Z,0.00
2022-11-07T02:36:16.082Z,0.00
2022-11-07T02:37:16.074Z,0.00
2022-11-07T02:38:16.059Z,0.00
2022-11-07T02:39:16.080Z,0.00
2022-11-07T02:40:16.039Z,0.00
2022-11-07T02:41:16.028Z,0.00
2022-11-07T02:42:16.019Z,0.00
2022-11-07T02:43:16.366Z,0.00
2022-11-07T02:44:15.993Z,0.00
2022-11-07T02:45:16.000Z,0.00
2022-11-07T02:46:15.994Z,0.00
2022-11-07T02:47:15.963Z,0.00
2022-11-07T02:48:15.947Z,0.00
2022-11-07T02:49:15.944Z,0.00
2022-11-07T02:50:15.950Z,0.00
2022-11-07T02:51:15.913Z,0.00
2022-11-07T02:52:15.909Z,0.00
2022-11-07T02:53:16.343Z,0.00
2022-11-07T02:54:15.879Z,0.00
2022-11-07T02:55:15.882Z,0.00
2022-11-07T02:56:15.865Z,0.00
2022-11-07T02:57:15.850Z,0.00
2022-11-07T02:58:15.840Z,0.00
2022-11-07T02:59:15.830Z,0.00
2022-11-07T03:00:15.822Z,0.00
2022-11-07T03:01:15.892Z,0.00
2022-11-07T03:02:15.937Z,0.00
2022-11-07T03:03:16.180Z,0.00
2022-11-07T03:04:15.776Z,0.00
2022-11-07T03:05:15.773Z,0.00
2022-11-07T03:06:15.755Z,0.00
2022-11-07T03:07:15.757Z,0.00
2022-11-07T03:08:15.725Z,0.00
2022-11-07T03:09:15.721Z,0.00
2022-11-07T03:10:15.717Z,0.00
2022-11-07T03:11:15.692Z,0.00
2022-11-07T03:12:15.686Z,0.00
2022-11-07T03:13:16.025Z,0.00
2022-11-07T03:14:15.670Z,0.00
2022-11-07T03:15:15.656Z,0.00
2022-11-07T03:16:15.656Z,0.00
2022-11-07T03:17:15.627Z,0.00
2022-11-07T03:18:15.650Z,0.00
2022-11-07T03:19:15.605Z,0.00
2022-11-07T03:20:15.607Z,0.00
2022-11-07T03:21:15.580Z,0.00
2022-11-07T03:22:15.583Z,0.00
2022-11-07T03:23:15.980Z,0.00
2022-11-07T03:24:15.553Z,0.00
2022-11-07T03:25:15.565Z,0.00
2022-11-07T03:26:15.529Z,0.00
2022-11-07T03:27:15.512Z,0.00
2022-11-07T03:28:15.505Z,0.00
2022-11-07T03:29:15.511Z,0.00
2022-11-07T03:30:15.487Z,0.00
2022-11-07T03:31:15.482Z,0.00
2022-11-07T03:32:15.463Z,0.00
2022-11-07T03:33:15.760Z,0.00
2022-11-07T03:34:15.482Z,0.00
2022-11-07T03:35:15.443Z,0.00
2022-11-07T03:36:15.437Z,0.00
2022-11-07T03:37:15.404Z,0.00
2022-11-07T03:38:15.396Z,0.00
2022-11-07T03:39:15.378Z,0.00
2022-11-07T03:40:15.373Z,0.00
2022-11-07T03:41:15.358Z,0.00
2022-11-07T03:42:15.366Z,0.00
2022-11-07T03:43:15.768Z,0.00
2022-11-07T03:44:15.327Z,0.00
2022-11-07T03:45:15.324Z,0.00
2022-11-07T03:46:15.321Z,0.00
2022-11-07T03:47:15.305Z,0.00
2022-11-07T03:48:15.300Z,0.00
2022-11-07T03:49:15.270Z,0.00
2022-11-07T03:50:15.280Z,0.00
2022-11-07T03:51:15.253Z,0.00
2022-11-07T03:52:15.252Z,0.00
2022-11-07T03:53:19.307Z,0.00
2022-11-07T03:54:16.232Z,0.00
2022-11-07T03:55:15.211Z,0.00
2022-11-07T03:56:15.197Z,0.00
2022-11-07T03:57:15.192Z,0.00
2022-11-07T03:58:15.173Z,0.00
2022-11-07T03:59:15.162Z,0.00
2022-11-07T04:00:15.157Z,0.00
2022-11-07T04:01:15.150Z,0.00
2022-11-07T04:02:15.220Z,0.00
2022-11-07T04:03:15.397Z,0.00
2022-11-07T04:04:15.112Z,0.00
2022-11-07T04:05:15.101Z,0.00
2022-11-07T04:06:15.105Z,0.00
2022-11-07T04:07:15.085Z,0.00
2022-11-07T04:08:15.068Z,0.00
2022-11-07T04:09:15.062Z,0.00
2022-11-07T04:10:15.042Z,0.00
2022-11-07T04:11:15.029Z,0.00
2022-11-07T04:12:15.020Z,0.00
2022-11-07T04:13:15.212Z,0.00
2022-11-07T04:14:14.997Z,0.00
2022-11-07T04:15:14.983Z,0.00
2022-11-07T04:16:17.526Z,0.00
2022-11-07T04:17:14.960Z,0.00
2022-11-07T04:18:14.960Z,0.00
2022-11-07T04:19:14.949Z,0.00
2022-11-07T04:20:14.935Z,0.00
2022-11-07T04:21:14.923Z,0.00
2022-11-07T04:22:14.938Z,0.00
2022-11-07T04:23:15.177Z,0.00
2022-11-07T04:24:14.888Z,0.00
2022-11-07T04:25:14.881Z,0.00
2022-11-07T04:26:14.864Z,0.00
2022-11-07T04:27:14.864Z,0.00
2022-11-07T04:28:14.850Z,0.00
2022-11-07T04:29:14.828Z,0.00
2022-11-07T04:30:14.821Z,0.00
2022-11-07T04:31:14.808Z,0.00
2022-11-07T04:32:14.807Z,0.00
2022-11-07T04:33:15.174Z,0.00
2022-11-07T04:34:14.792Z,0.00
2022-11-07T04:35:14.769Z,0.00
2022-11-07T04:36:14.755Z,0.00
2022-11-07T04:37:14.739Z,0.00
2022-11-07T04:38:14.758Z,0.00
2022-11-07T04:39:14.733Z,0.00
2022-11-07T04:40:14.716Z,0.00
2022-11-07T04:41:14.695Z,0.00
2022-11-07T04:42:14.685Z,0.00
2022-11-07T04:43:14.916Z,0.00
2022-11-07T04:44:14.687Z,0.00
2022-11-07T04:45:14.655Z,0.00
2022-11-07T04:46:14.643Z,0.00
2022-11-07T04:47:14.628Z,0.00
2022-11-07T04:48:14.618Z,0.00
2022-11-07T04:49:14.611Z,0.00
2022-11-07T04:50:14.604Z,0.00
2022-11-07T04:51:14.596Z,0.00
2022-11-07T04:52:14.576Z,0.00
2022-11-07T04:53:14.960Z,0.00
2022-11-07T04:54:14.574Z,0.00
2022-11-07T04:55:14.559Z,0.00
2022-11-07T04:56:14.528Z,0.00
2022-11-07T04:57:14.521Z,0.00
2022-11-07T04:58:21.599Z,0.00
2022-11-07T04:59:14.490Z,0.00
2022-11-07T05:00:14.479Z,0.00
2022-11-07T05:01:14.561Z,0.00
2022-11-07T05:02:14.656Z,0.00
2022-11-07T05:03:14.838Z,0.00
2022-11-07T05:04:14.445Z,0.00
2022-11-07T05:05:14.423Z,0.00
2022-11-07T05:06:14.418Z,0.00
2022-11-07T05:07:14.409Z,0.00
2022-11-07T05:08:14.394Z,0.00
2022-11-07T05:09:14.398Z,0.00
2022-11-07T05:10:14.393Z,0.00
2022-11-07T05:11:14.373Z,0.00
2022-11-07T05:12:14.375Z,0.00
2022-11-07T05:13:14.675Z,0.00
2022-11-07T05:14:14.354Z,0.00
2022-11-07T05:15:14.315Z,0.00
2022-11-07T05:16:14.305Z,0.00
2022-11-07T05:17:14.310Z,0.00
2022-11-07T05:18:14.284Z,0.00
2022-11-07T05:19:14.273Z,0.00
2022-11-07T05:20:14.264Z,0.00
2022-11-07T05:21:14.250Z,0.00
2022-11-07T05:22:14.263Z,0.00
2022-11-07T05:23:14.624Z,0.00
2022-11-07T05:24:14.223Z,0.00
2022-11-07T05:25:14.202Z,0.00
2022-11-07T05:26:14.211Z,0.00
2022-11-07T05:27:14.182Z,0.00
2022-11-07T05:28:14.212Z,0.00
2022-11-07T05:29:14.159Z,0.00
2022-11-07T05:30:14.160Z,0.00
2022-11-07T05:31:14.144Z,0.00
2022-11-07T05:32:14.136Z,0.00
2022-11-07T05:33:14.364Z,0.00
2022-11-07T05:34:14.782Z,0.00
2022-11-07T05:35:14.093Z,0.00
2022-11-07T05:36:14.082Z,0.00
2022-11-07T05:37:14.075Z,0.00
2022-11-07T05:38:14.064Z,0.00
2022-11-07T05:39:14.044Z,0.00
2022-11-07T05:40:14.053Z,0.00
2022-11-07T05:41:14.043Z,0.00
2022-11-07T05:42:14.038Z,0.00
2022-11-07T05:43:14.393Z,0.00
2022-11-07T05:44:13.997Z,0.00
2022-11-07T05:45:13.977Z,0.00
2022-11-07T05:46:13.986Z,0.00
2022-11-07T05:47:13.971Z,0.00
2022-11-07T05:48:13.951Z,0.00
2022-11-07T05:49:13.950Z,0.00
2022-11-07T05:50:13.924Z,0.00
2022-11-07T05:51:13.919Z,0.00
2022-11-07T05:52:13.932Z,0.00
2022-11-07T05:53:14.312Z,0.00
2022-11-07T05:54:13.906Z,0.00
2022-11-07T05:55:13.873Z,0.00
2022-11-07T05:56:13.862Z,0.00
2022-11-07T05:57:13.854Z,0.00
2022-11-07T05:58:13.938Z,0.00
2022-11-07T05:59:13.879Z,0.00
2022-11-07T06:00:13.822Z,0.00
2022-11-07T06:01:13.804Z,0.00
2022-11-07T06:02:13.902Z,0.00
2022-11-07T06:03:14.167Z,0.00
2022-11-07T06:04:13.795Z,0.00
2022-11-07T06:05:13.761Z,0.00
2022-11-07T06:06:13.744Z,0.00
2022-11-07T06:07:13.738Z,0.00
2022-11-07T06:08:13.730Z,0.00
2022-11-07T06:09:13.744Z,0.00
2022-11-07T06:10:13.711Z,0.00
2022-11-07T06:11:13.691Z,0.00
2022-11-07T06:12:13.690Z,4.00
2022-11-07T06:13:14.204Z,0.00
2022-11-07T06:14:13.715Z,0.00
2022-11-07T06:15:13.650Z,4.00
2022-11-07T06:16:13.647Z,4.00
2022-11-07T06:17:13.633Z,4.00
2022-11-07T06:18:13.619Z,4.00
2022-11-07T06:19:13.605Z,4.00
2022-11-07T06:20:13.598Z,4.00
2022-11-07T06:21:13.578Z,0.00
2022-11-07T06:22:13.569Z,0.00
2022-11-07T06:23:13.919Z,4.00
2022-11-07T06:24:15.287Z,4.00
2022-11-07T06:25:13.530Z,4.00
2022-11-07T06:26:13.528Z,4.00
2022-11-07T06:27:13.532Z,4.00
2022-11-07T06:28:13.504Z,4.00
2022-11-07T06:29:13.494Z,4.00
2022-11-07T06:30:13.511Z,4.00
2022-11-07T06:31:13.468Z,8.00
2022-11-07T06:32:13.463Z,4.00
2022-11-07T06:33:13.814Z,12.00
2022-11-07T06:34:13.498Z,8.00
2022-11-07T06:35:14.460Z,8.00
2022-11-07T06:36:13.415Z,12.00
2022-11-07T06:37:13.400Z,12.00
2022-11-07T06:38:13.414Z,12.00
2022-11-07T06:39:13.378Z,12.00
2022-11-07T06:40:13.384Z,12.00
2022-11-07T06:41:13.379Z,16.00
2022-11-07T06:42:13.342Z,8.00
2022-11-07T06:43:13.874Z,8.00
2022-11-07T06:44:13.358Z,12.00
2022-11-07T06:45:13.318Z,12.00
2022-11-07T06:46:13.333Z,12.00
2022-11-07T06:47:13.287Z,12.00
2022-11-07T06:48:13.285Z,16.00
2022-11-07T06:49:13.274Z,12.00
2022-11-07T06:50:13.260Z,12.00
2022-11-07T06:51:13.252Z,16.00
2022-11-07T06:52:13.241Z,12.00
2022-11-07T06:53:13.951Z,20.00
2022-11-07T06:54:13.223Z,24.00
2022-11-07T06:55:13.202Z,24.00
2022-11-07T06:56:13.203Z,28.00
2022-11-07T06:57:13.195Z,24.00
2022-11-07T06:58:13.168Z,28.00
2022-11-07T06:59:13.151Z,28.00
2022-11-07T07:00:13.147Z,32.00
2022-11-07T07:01:13.389Z,40.00
2022-11-07T07:02:21.728Z,32.00
2022-11-07T07:03:14.627Z,44.00
2022-11-07T07:04:13.103Z,44.00
2022-11-07T07:05:17.077Z,48.00
2022-11-07T07:06:14.086Z,64.00
2022-11-07T07:07:13.068Z,52.00
2022-11-07T07:08:13.086Z,64.00
2022-11-07T07:09:13.044Z,64.00
2022-11-07T07:10:13.032Z,64.00
2022-11-07T07:11:13.030Z,72.00
2022-11-07T07:12:13.021Z,64.00
2022-11-07T07:13:13.444Z,100.00
2022-11-07T07:14:12.987Z,80.00
2022-11-07T07:15:12.974Z,80.00
2022-11-07T07:16:12.985Z,88.00
2022-11-07T07:17:12.955Z,76.00
2022-11-07T07:18:13.062Z,120.00
2022-11-07T07:19:12.930Z,100.00
2022-11-07T07:20:12.922Z,108.00
2022-11-07T07:21:12.916Z,140.00
2022-11-07T07:22:12.928Z,116.00
2022-11-07T07:23:12.896Z,144.00
2022-11-07T07:24:12.884Z,136.00
2022-11-07T07:25:12.863Z,132.00
2022-11-07T07:26:12.867Z,180.00
2022-11-07T07:27:12.862Z,180.00
2022-11-07T07:28:12.835Z,208.00
2022-11-07T07:29:12.823Z,184.00
2022-11-07T07:30:12.822Z,212.00
2022-11-07T07:31:12.812Z,240.00
2022-11-07T07:32:12.804Z,248.00
2022-11-07T07:33:13.169Z,296.00
2022-11-07T07:34:12.878Z,228.00
2022-11-07T07:35:12.756Z,252.00
2022-11-07T07:36:17.828Z,300.00
2022-11-07T07:37:12.740Z,276.00
2022-11-07T07:38:12.734Z,312.00
2022-11-07T07:39:12.713Z,304.00
2022-11-07T07:40:12.713Z,288.00
2022-11-07T07:41:12.697Z,240.00
2022-11-07T07:42:12.678Z,212.00
2022-11-07T07:43:12.950Z,272.00
2022-11-07T07:44:12.658Z,232.00
2022-11-07T07:45:12.667Z,264.00
2022-11-07T07:46:12.639Z,280.00
2022-11-07T07:47:12.624Z,220.00
2022-11-07T07:48:12.619Z,252.00
2022-11-07T07:49:12.615Z,264.00
2022-11-07T07:50:12.699Z,276.00
2022-11-07T07:51:12.578Z,348.00
2022-11-07T07:52:12.685Z,396.00
2022-11-07T07:53:12.656Z,380.00
2022-11-07T07:54:12.547Z,268.00
2022-11-07T07:55:12.533Z,224.00
2022-11-07T07:56:12.522Z,256.00
2022-11-07T07:57:12.519Z,200.00
2022-11-07T07:58:12.511Z,212.00
2022-11-07T07:59:12.509Z,216.00
2022-11-07T08:00:12.492Z,184.00
2022-11-07T08:01:12.543Z,216.00
2022-11-07T08:02:12.533Z,200.00
2022-11-07T08:03:12.459Z,208.00
2022-11-07T08:04:12.439Z,248.00
2022-11-07T08:05:12.421Z,224.00
2022-11-07T08:06:12.521Z,268.00
2022-11-07T08:07:12.401Z,240.00
2022-11-07T08:08:12.391Z,240.00
2022-11-07T08:09:12.389Z,272.00
2022-11-07T08:10:39.609Z,216.00
2022-11-07T08:11:13.354Z,268.00
2022-11-07T08:12:12.340Z,308.00
2022-11-07T08:13:12.343Z,324.00
2022-11-07T08:14:12.349Z,360.00
2022-11-07T08:15:12.310Z,348.00
2022-11-07T08:16:12.298Z,468.00
2022-11-07T08:17:12.288Z,380.00
2022-11-07T08:18:12.282Z,316.00
2022-11-07T08:19:12.266Z,372.00
2022-11-07T08:20:12.265Z,292.00
2022-11-07T08:21:12.246Z,260.00
2022-11-07T08:22:12.365Z,240.00
2022-11-07T08:23:16.317Z,228.00
2022-11-07T08:24:12.322Z,288.00
2022-11-07T08:25:12.198Z,272.00
2022-11-07T08:26:12.185Z,332.00
2022-11-07T08:27:12.182Z,404.00
2022-11-07T08:28:12.161Z,408.00
2022-11-07T08:29:12.176Z,540.00
2022-11-07T08:30:17.575Z,576.00
2022-11-07T08:31:13.130Z,572.00
2022-11-07T08:32:12.138Z,668.00
2022-11-07T08:33:12.202Z,460.00
2022-11-07T08:34:12.183Z,420.00
2022-11-07T08:35:12.084Z,348.00
2022-11-07T08:36:12.104Z,328.00
2022-11-07T08:37:12.100Z,360.00
2022-11-07T08:38:12.106Z,324.00
2022-11-07T08:39:12.046Z,264.00
2022-11-07T08:40:12.035Z,308.00
2022-11-07T08:41:12.035Z,264.00
2022-11-07T08:42:12.011Z,288.00
2022-11-07T08:43:12.017Z,268.00
2022-11-07T08:44:11.984Z,200.00
2022-11-07T08:45:11.999Z,264.00
2022-11-07T08:46:11.964Z,276.00
2022-11-07T08:47:11.957Z,336.00
2022-11-07T08:48:11.941Z,352.00
2022-11-07T08:49:11.945Z,312.00
2022-11-07T08:50:11.924Z,392.00
2022-11-07T08:51:11.932Z,344.00
2022-11-07T08:52:11.892Z,360.00
2022-11-07T08:53:11.888Z,408.00
2022-11-07T08:54:11.912Z,392.00
2022-11-07T08:55:11.863Z,376.00
2022-11-07T08:56:11.874Z,292.00
2022-11-07T08:57:11.854Z,276.00
2022-11-07T08:58:11.826Z,356.00
2022-11-07T08:59:11.829Z,408.00
2022-11-07T09:00:11.830Z,456.00
2022-11-07T09:01:11.905Z,540.00
2022-11-07T09:04:12.832Z,664.00
2022-11-07T09:05:11.757Z,640.00
2022-11-07T09:06:11.768Z,736.00
2022-11-07T09:07:11.731Z,604.00
2022-11-07T09:08:11.709Z,548.00
2022-11-07T09:09:16.507Z,528.00
2022-11-07T09:10:12.758Z,420.00
2022-11-07T09:11:11.695Z,636.00
2022-11-07T09:12:11.678Z,668.00
2022-11-07T09:13:11.669Z,784.00
2022-11-07T09:14:11.645Z,1352.00
2022-11-07T09:15:11.648Z,984.00
2022-11-07T09:16:11.644Z,1284.00
2022-11-07T09:17:11.620Z,1328.00
2022-11-07T09:18:11.647Z,1272.00
2022-11-07T09:19:11.607Z,1532.00
2022-11-07T09:20:11.587Z,2860.00
2022-11-07T09:21:11.580Z,1800.00
2022-11-07T09:22:11.575Z,1664.00
2022-11-07T09:23:11.563Z,1724.00
2022-11-07T09:24:11.543Z,3548.00
2022-11-07T09:25:11.528Z,3812.00
2022-11-07T09:26:11.532Z,3848.00
2022-11-07T09:27:11.512Z,2328.00
2022-11-07T09:28:11.590Z,3404.00
2022-11-07T09:29:11.479Z,3712.00
2022-11-07T09:30:11.474Z,2704.00
2022-11-07T09:31:11.460Z,2676.00
2022-11-07T09:32:38.179Z,2732.00
2022-11-07T09:33:12.698Z,2404.00
2022-11-07T09:34:11.457Z,2020.00
2022-11-07T09:35:11.415Z,2452.00
2022-11-07T09:36:11.404Z,1512.00
2022-11-07T09:37:11.415Z,1264.00
2022-11-07T09:38:11.386Z,1256.00
2022-11-07T09:39:11.372Z,1172.00
2022-11-07T09:40:11.367Z,1100.00
2022-11-07T09:41:11.353Z,1172.00
2022-11-07T09:42:11.351Z,1132.00
2022-11-07T09:43:11.333Z,1028.00
2022-11-07T09:44:11.310Z,1132.00
2022-11-07T09:45:11.305Z,1028.00
2022-11-07T09:46:11.301Z,944.00
2022-11-07T09:47:11.290Z,972.00
2022-11-07T09:48:11.286Z,1004.00
2022-11-07T09:49:11.291Z,1020.00
2022-11-07T09:50:11.259Z,1004.00
2022-11-07T09:51:11.240Z,1088.00
2022-11-07T09:52:11.230Z,952.00
2022-11-07T09:53:11.242Z,896.00
2022-11-07T09:54:11.210Z,920.00
2022-11-07T09:55:11.199Z,848.00
2022-11-07T09:56:11.193Z,792.00
2022-11-07T09:57:14.154Z,896.00
2022-11-07T09:58:11.278Z,896.00
2022-11-07T09:59:14.207Z,884.00
2022-11-07T10:00:11.153Z,968.00
2022-11-07T10:01:11.164Z,880.00
2022-11-07T10:02:11.175Z,976.00
2022-11-07T10:03:11.119Z,1316.00
2022-11-07T10:04:24.698Z,1420.00
2022-11-07T10:05:12.116Z,1324.00
2022-11-07T10:06:11.075Z,1156.00
2022-11-07T10:07:11.065Z,1008.00
2022-11-07T10:08:11.058Z,1048.00
2022-11-07T10:09:11.042Z,1136.00
2022-11-07T10:10:11.044Z,1212.00
2022-11-07T10:11:11.027Z,1224.00
2022-11-07T10:12:11.002Z,1392.00
2022-11-07T10:13:11.026Z,1236.00
2022-11-07T10:14:11.006Z,980.00
2022-11-07T10:15:10.985Z,1016.00
2022-11-07T10:16:10.963Z,1092.00
2022-11-07T10:17:10.949Z,848.00
2022-11-07T10:18:10.949Z,924.00
2022-11-07T10:19:10.924Z,816.00
2022-11-07T10:20:10.911Z,676.00
2022-11-07T10:21:36.589Z,628.00
2022-11-07T10:22:11.891Z,676.00
2022-11-07T10:23:10.910Z,564.00
2022-11-07T10:24:10.867Z,568.00
2022-11-07T10:25:10.860Z,564.00
2022-11-07T10:26:10.888Z,532.00
2022-11-07T10:27:10.839Z,512.00
2022-11-07T10:28:10.839Z,612.00
2022-11-07T10:29:10.814Z,456.00
2022-11-07T10:30:10.821Z,488.00
2022-11-07T10:31:10.801Z,576.00
2022-11-07T10:32:10.787Z,512.00
2022-11-07T10:33:10.775Z,520.00
2022-11-07T10:34:10.758Z,492.00
2022-11-07T10:35:10.784Z,400.00
2022-11-07T10:36:10.738Z,412.00
2022-11-07T10:37:10.723Z,548.00
2022-11-07T10:38:10.722Z,452.00
2022-11-07T10:39:10.715Z,496.00
2022-11-07T10:40:12.019Z,536.00
2022-11-07T10:41:10.708Z,528.00
2022-11-07T10:42:10.688Z,448.00
2022-11-07T10:43:10.679Z,436.00
2022-11-07T10:44:10.733Z,440.00
2022-11-07T10:45:10.650Z,344.00
2022-11-07T10:46:10.639Z,428.00
2022-11-07T10:47:10.621Z,396.00
2022-11-07T10:48:10.611Z,384.00
2022-11-07T10:49:10.616Z,376.00
2022-11-07T10:50:10.584Z,300.00
2022-11-07T10:51:10.597Z,256.00
2022-11-07T10:52:10.559Z,268.00
2022-11-07T10:53:10.547Z,316.00
2022-11-07T10:54:10.541Z,276.00
2022-11-07T10:55:10.541Z,344.00
2022-11-07T10:56:10.516Z,348.00
2022-11-07T10:57:10.528Z,320.00
2022-11-07T10:58:10.493Z,328.00
2022-11-07T10:59:10.481Z,392.00
2022-11-07T11:00:10.572Z,360.00
2022-11-07T11:01:10.509Z,368.00
2022-11-07T11:02:10.501Z,396.00
2022-11-07T11:03:10.459Z,380.00
2022-11-07T11:04:10.425Z,348.00
2022-11-07T11:05:10.416Z,440.00
2022-11-07T11:06:10.403Z,412.00
2022-11-07T11:07:10.389Z,392.00
2022-11-07T11:08:10.404Z,452.00
2022-11-07T11:09:10.383Z,424.00
2022-11-07T11:10:10.362Z,320.00
2022-11-07T11:11:10.355Z,280.00
2022-11-07T11:12:10.355Z,276.00
2022-11-07T11:13:10.329Z,280.00
2022-11-07T11:14:10.311Z,328.00
2022-11-07T11:15:10.317Z,296.00
2022-11-07T11:16:10.295Z,236.00
2022-11-07T11:17:10.347Z,308.00
2022-11-07T11:18:10.287Z,372.00
2022-11-07T11:19:10.270Z,380.00
2022-11-07T11:20:10.269Z,488.00
2022-11-07T11:21:10.255Z,488.00
2022-11-07T11:22:10.234Z,460.00
2022-11-07T11:23:10.216Z,564.00
2022-11-07T11:24:10.197Z,660.00
2022-11-07T11:25:10.215Z,588.00
2022-11-07T11:26:10.195Z,612.00
2022-11-07T11:27:10.171Z,676.00
2022-11-07T11:28:10.160Z,564.00
2022-11-07T11:29:10.143Z,612.00
2022-11-07T11:30:10.138Z,640.00
2022-11-07T11:31:10.133Z,524.00
2022-11-07T11:32:10.138Z,580.00
2022-11-07T11:33:10.123Z,676.00
2022-11-07T11:34:10.111Z,724.00
2022-11-07T11:35:10.079Z,740.00
2022-11-07T11:36:10.064Z,724.00
2022-11-07T11:37:10.092Z,696.00
2022-11-07T11:38:10.053Z,584.00
2022-11-07T11:39:10.052Z,612.00
2022-11-07T11:40:10.021Z,672.00
2022-11-07T11:41:11.095Z,560.00
2022-11-07T11:42:10.008Z,656.00
2022-11-07T11:43:09.989Z,820.00
2022-11-07T11:44:09.974Z,748.00
2022-11-07T11:45:09.974Z,576.00
2022-11-07T11:46:09.966Z,604.00
2022-11-07T11:47:09.958Z,532.00
2022-11-07T11:48:09.932Z,424.00
2022-11-07T11:49:09.924Z,472.00
2022-11-07T11:50:09.939Z,440.00
2022-11-07T11:51:09.896Z,364.00
2022-11-07T11:52:09.897Z,380.00
2022-11-07T11:53:09.891Z,440.00
2022-11-07T11:54:09.868Z,428.00
2022-11-07T11:55:09.874Z,328.00
2022-11-07T11:56:09.848Z,344.00
2022-11-07T11:57:09.866Z,276.00
2022-11-07T11:58:09.829Z,240.00
2022-11-07T11:59:09.811Z,288.00
2022-11-07T12:00:09.807Z,256.00
2022-11-07T12:01:09.934Z,232.00
2022-11-07T12:02:09.830Z,284.00
2022-11-07T12:03:09.762Z,320.00
2022-11-07T12:04:09.773Z,336.00
2022-11-07T12:05:09.739Z,436.00
2022-11-07T12:06:09.768Z,540.00
2022-11-07T12:07:09.718Z,516.00
2022-11-07T12:08:09.772Z,628.00
2022-11-07T12:09:13.962Z,668.00
2022-11-07T12:10:10.708Z,628.00
2022-11-07T12:11:09.673Z,680.00
2022-11-07T12:12:09.669Z,836.00
2022-11-07T12:13:09.652Z,956.00
2022-11-07T12:14:09.657Z,828.00
2022-11-07T12:15:09.647Z,756.00
2022-11-07T12:16:09.625Z,700.00
2022-11-07T12:17:09.625Z,588.00
2022-11-07T12:18:09.604Z,640.00
2022-11-07T12:19:09.604Z,720.00
2022-11-07T12:20:09.577Z,708.00
2022-11-07T12:21:09.580Z,692.00
2022-11-07T12:22:09.580Z,736.00
2022-11-07T12:23:09.543Z,748.00
2022-11-07T12:24:09.538Z,612.00
2022-11-07T12:25:09.525Z,624.00
2022-11-07T12:26:09.512Z,652.00
2022-11-07T12:27:09.543Z,572.00
2022-11-07T12:28:09.494Z,592.00
2022-11-07T12:29:09.483Z,588.00
2022-11-07T12:30:09.492Z,516.00
2022-11-07T12:31:09.469Z,492.00
2022-11-07T12:32:09.447Z,504.00
2022-11-07T12:33:09.442Z,508.00
2022-11-07T12:34:09.866Z,372.00
2022-11-07T12:35:09.410Z,380.00
2022-11-07T12:36:09.399Z,428.00
2022-11-07T12:37:09.384Z,388.00
2022-11-07T12:38:09.401Z,404.00
2022-11-07T12:39:09.369Z,488.00
2022-11-07T12:40:09.370Z,456.00
2022-11-07T12:41:09.341Z,472.00
2022-11-07T12:42:09.352Z,464.00
2022-11-07T12:43:09.329Z,468.00
2022-11-07T12:44:09.319Z,428.00
2022-11-07T12:45:09.312Z,400.00
2022-11-07T12:46:09.293Z,412.00
2022-11-07T12:47:09.293Z,440.00
2022-11-07T12:48:13.340Z,368.00
2022-11-07T12:49:09.260Z,436.00
2022-11-07T12:50:09.270Z,464.00
2022-11-07T12:51:09.246Z,388.00
2022-11-07T12:52:09.226Z,344.00
2022-11-07T12:53:09.212Z,320.00
2022-11-07T12:54:12.563Z,316.00
2022-11-07T12:55:10.200Z,308.00